Time;durP1;ratioP1;P1;durP2;ratioP2;P2;SDS_P1;SDS_P2;PMS_P1;PMS_P2;Temp;Humidity;BMP_temperature;BMP_pressure;BME280_temperature;BME280_humidity;BME280_pressure;Samples;Min_cycle;Max_cycle;Signal;HPM_P1;HPM_P2
2022/06/21 00:00:19;;;;;;;7.25;3.20;;;;;;;13.61;69.38;93161.09;5049753;28;20152;-42
2022/06/21 00:02:45;;;;;;;3.65;3.30;;;;;;;13.61;69.25;93158.31;5066109;28;20115;-40
2022/06/21 00:05:27;;;;;;;4.97;3.72;;;;;;;13.73;68.88;93163.34;5068507;28;20036;-40
2022/06/21 00:07:53;;;;;;;3.63;3.33;;;;;;;13.77;68.91;93167.16;5067150;28;20033;-40
2022/06/21 00:10:19;;;;;;;3.63;2.95;;;;;;;13.81;68.46;93173.03;5064097;28;20067;-40
2022/06/21 00:12:46;;;;;;;4.03;3.00;;;;;;;13.56;68.72;93173.16;5049124;28;20031;-41
2022/06/21 00:15:12;;;;;;;4.90;3.67;;;;;;;13.56;68.91;93169.66;5049121;28;20049;-40
2022/06/21 00:17:39;;;;;;;6.88;3.58;;;;;;;13.56;69.04;93169.66;5049919;28;20402;-40
2022/06/21 00:20:05;;;;;;;5.63;3.75;;;;;;;13.60;69.02;93165.16;5031186;28;20083;-40
2022/06/21 00:22:31;;;;;;;4.78;3.47;;;;;;;13.67;69.64;93155.25;5052799;28;20056;-40
2022/06/21 00:24:57;;;;;;;3.40;3.08;;;;;;;13.49;68.91;93140.00;5069136;28;20446;-40
2022/06/21 00:27:22;;;;;;;3.72;3.42;;;;;;;13.61;68.88;93155.53;5062781;28;20110;-40
2022/06/21 00:29:48;;;;;;;5.72;3.70;;;;;;;13.47;70.13;93157.19;5069216;28;20089;-40
2022/06/21 00:32:16;;;;;;;5.05;4.30;;;;;;;13.36;69.50;93149.38;5068777;28;20068;-40
2022/06/21 00:34:42;;;;;;;5.53;3.17;;;;;;;13.23;69.40;93146.25;5067952;28;20508;-39
2022/06/21 00:37:13;;;;;;;4.00;3.60;;;;;;;13.38;68.55;93149.53;5057671;28;20028;-40
2022/06/21 00:39:39;;;;;;;3.83;3.40;;;;;;;13.40;67.95;93158.06;5053638;28;20063;-40
2022/06/21 00:42:15;;;;;;;3.60;3.30;;;;;;;13.19;68.61;93154.25;5053674;28;20133;-40
2022/06/21 00:44:45;;;;;;;3.67;3.35;;;;;;;13.21;68.94;93146.09;5049130;28;20028;-40
2022/06/21 00:47:20;;;;;;;3.78;3.45;;;;;;;13.25;68.98;93138.84;5047342;28;20071;-40
2022/06/21 00:49:58;;;;;;;5.03;3.63;;;;;;;13.01;69.74;93136.88;5031328;28;20057;-40
2022/06/21 00:52:57;;;;;;;6.60;3.28;;;;;;;12.87;70.47;93135.72;5068681;28;20090;-40
2022/06/21 00:55:47;;;;;;;6.03;3.60;;;;;;;12.99;70.44;93138.75;5050724;28;20120;-40
2022/06/21 00:58:15;;;;;;;3.53;3.22;;;;;;;13.10;69.58;93143.81;5068063;28;20115;-40
2022/06/21 01:01:00;;;;;;;4.57;3.70;;;;;;;13.12;68.96;93136.41;5069054;28;20037;-40
2022/06/21 01:03:31;;;;;;;3.55;3.25;;;;;;;12.94;68.76;93143.22;5069465;28;20036;-40
2022/06/21 01:05:57;;;;;;;4.00;3.63;;;;;;;12.97;68.61;93138.59;5072888;28;20107;-40
2022/06/21 01:08:25;;;;;;;3.83;3.42;;;;;;;12.95;68.98;93133.59;5072613;28;20588;-40
2022/06/21 01:10:57;;;;;;;5.55;3.53;;;;;;;12.99;69.05;93138.75;5054977;28;20439;-40
2022/06/21 01:13:27;;;;;;;3.47;3.17;;;;;;;12.78;69.14;93134.34;5046194;28;20033;-40
2022/06/21 01:15:53;;;;;;;5.53;3.55;;;;;;;12.83;69.69;93130.63;5034361;28;20036;-40
2022/06/21 01:18:21;;;;;;;3.72;3.42;;;;;;;12.73;70.02;93134.59;5051591;28;20705;-40
2022/06/21 01:20:50;;;;;;;4.60;3.58;;;;;;;12.73;70.06;93124.25;5034674;28;20033;-41
2022/06/21 01:23:41;;;;;;;3.88;3.25;;;;;;;12.67;69.86;93131.31;5044457;28;20025;-41
2022/06/21 01:26:47;;;;;;;7.43;4.15;;;;;;;12.59;71.01;93128.66;5071396;28;20060;-41
2022/06/21 01:29:17;;;;;;;4.22;3.83;;;;;;;12.71;70.38;93134.44;5054754;28;20528;-41
2022/06/21 01:31:43;;;;;;;5.57;3.92;;;;;;;12.74;70.02;93136.81;5072864;28;20514;-41
2022/06/21 01:34:17;;;;;;;3.40;3.10;;;;;;;12.64;70.19;93135.25;5072576;28;20033;-41
2022/06/21 01:36:44;;;;;;;3.08;2.85;;;;;;;12.74;69.42;93133.28;5065575;28;20111;-40
2022/06/21 01:39:18;;;;;;;5.63;4.03;;;;;;;12.56;70.01;93140.84;5034439;28;20029;-40
2022/06/21 01:41:56;;;;;;;4.05;3.03;;;;;;;12.67;70.02;93150.72;5051913;28;20029;-41
2022/06/21 01:44:28;;;;;;;4.97;3.38;;;;;;;12.78;69.87;93133.63;5034423;28;20563;-40
2022/06/21 01:46:54;;;;;;;4.18;3.78;;;;;;;12.81;70.15;93138.75;5033834;28;20116;-40
2022/06/21 01:49:22;;;;;;;3.83;3.53;;;;;;;12.70;70.29;93135.75;5052115;28;20490;-43
2022/06/21 01:51:51;;;;;;;3.97;3.55;;;;;;;12.64;70.06;93141.53;5051991;28;20024;-41
2022/06/21 01:54:19;;;;;;;5.72;3.83;;;;;;;12.54;70.01;93135.16;5034310;28;20390;-41
2022/06/21 01:56:46;;;;;;;3.40;3.10;;;;;;;12.64;69.42;93140.78;5051825;28;20021;-40
2022/06/21 01:59:25;;;;;;;3.67;3.38;;;;;;;12.56;69.55;93134.59;5051502;28;20036;-40
2022/06/21 02:01:58;;;;;;;3.83;3.53;;;;;;;12.40;71.05;93141.59;5060331;28;20112;-40
2022/06/21 02:04:27;;;;;;;3.80;3.40;;;;;;;12.50;70.77;93134.09;5070410;28;20135;-40
2022/06/21 02:06:53;;;;;;;4.78;3.30;;;;;;;12.33;71.38;93129.28;5063741;28;20104;-40
2022/06/21 02:09:29;;;;;;;3.92;3.63;;;;;;;12.30;70.55;93116.56;5051639;28;20052;-40
2022/06/21 02:12:04;;;;;;;3.47;3.15;;;;;;;12.40;69.91;93124.97;5050588;28;20036;-40
2022/06/21 02:14:33;;;;;;;3.80;3.45;;;;;;;12.09;71.26;93122.47;5051176;28;20031;-40
2022/06/21 02:17:22;;;;;;;3.75;3.45;;;;;;;12.22;70.42;93129.00;5034204;28;20159;-40
2022/06/21 02:20:02;;;;;;;4.03;3.33;;;;;;;12.19;69.95;93137.16;5034236;28;20118;-41
2022/06/21 02:22:29;;;;;;;6.63;3.65;;;;;;;12.05;70.76;93132.47;5055156;28;20028;-40
2022/06/21 02:24:55;;;;;;;4.40;3.10;;;;;;;12.23;70.39;93141.56;5053878;28;20032;-40
2022/06/21 02:27:24;;;;;;;4.20;3.65;;;;;;;12.24;70.25;93143.75;5071170;28;20202;-41
2022/06/21 02:29:51;;;;;;;;;;;;;;;12.25;70.24;93148.00;5072095;28;20036;-41
2022/06/21 02:32:24;;;;;;;5.40;3.42;;;;;;;12.15;70.56;93149.91;5070882;28;19912;-41
2022/06/21 02:34:52;;;;;;;4.30;3.90;;;;;;;12.04;71.63;93147.63;5053460;28;20116;-40
2022/06/21 02:37:17;;;;;;;3.97;3.60;;;;;;;12.07;71.41;93132.66;5053530;28;20052;-40
2022/06/21 02:39:43;;;;;;;3.65;3.33;;;;;;;12.17;71.64;93136.97;5071524;28;20034;-40
2022/06/21 02:42:19;;;;;;;4.00;3.60;;;;;;;12.20;71.25;93129.59;5053213;28;20028;-41
2022/06/21 02:44:52;;;;;;;5.70;3.70;;;;;;;12.24;71.09;93126.41;5053360;28;20051;-41
2022/06/21 02:47:23;;;;;;;4.68;3.25;;;;;;;12.14;71.92;93132.59;5053494;28;20052;-41
2022/06/21 02:49:52;;;;;;;3.92;3.47;;;;;;;11.96;71.20;93133.84;5069740;28;20513;-42
2022/06/21 02:52:39;;;;;;;3.28;2.97;;;;;;;12.07;70.99;93138.91;5052828;28;20539;-41
2022/06/21 02:55:32;;;;;;;4.78;3.63;;;;;;;12.02;71.18;93126.03;5044068;28;20036;-41
2022/06/21 02:58:13;;;;;;;6.75;3.67;;;;;;;11.95;71.59;93121.28;5070806;28;20055;-41
2022/06/21 03:00:42;;;;;;;4.43;3.50;;;;;;;11.79;71.83;93124.75;5067370;28;20413;-41
2022/06/21 03:03:14;;;;;;;4.60;3.33;;;;;;;12.01;70.95;93121.06;5052860;28;20557;-40
2022/06/21 03:05:40;;;;;;;3.65;3.35;;;;;;;11.85;71.60;93117.69;5069566;28;20052;-40
2022/06/21 03:08:06;;;;;;;15.63;3.65;;;;;;;11.95;72.23;93121.28;5069295;28;20052;-42
2022/06/21 03:10:46;;;;;;;6.63;3.63;;;;;;;11.91;71.82;93120.25;5070476;28;20032;-41
2022/06/21 03:13:17;;;;;;;6.20;3.78;;;;;;;11.96;71.21;93110.97;5039258;28;20067;-41
2022/06/21 03:15:45;;;;;;;4.32;3.38;;;;;;;12.00;71.06;93111.28;5047676;28;20534;-41
2022/06/21 03:18:14;;;;;;;4.13;3.38;;;;;;;12.12;70.75;93120.63;5048999;28;20025;-43
2022/06/21 03:20:40;;;;;;;4.93;3.70;;;;;;;12.03;71.08;93118.47;5048821;28;20093;-41
2022/06/21 03:23:07;;;;;;;10.02;4.20;;;;;;;12.00;72.17;93117.56;5057215;28;20036;-42
2022/06/21 03:25:56;;;;;;;5.30;3.67;;;;;;;11.94;72.54;93108.78;5068471;28;20029;-41
2022/06/21 03:28:35;;;;;;;6.72;4.25;;;;;;;12.00;72.43;93109.28;5049740;28;20410;-41
2022/06/21 03:31:09;;;;;;;5.20;3.95;;;;;;;12.08;72.17;93114.75;5068600;28;20039;-41
2022/06/21 03:33:37;;;;;;;9.27;4.28;;;;;;;12.02;72.68;93109.44;5062481;28;20024;-41
2022/06/21 03:36:06;;;;;;;6.68;4.28;;;;;;;12.04;73.50;93101.31;5050699;28;20146;-40
2022/06/21 03:38:32;;;;;;;4.95;3.97;;;;;;;12.15;72.98;93114.66;5067348;28;20028;-41
2022/06/21 03:43:47;;;;;;;4.47;4.07;;;;;;;12.12;73.24;93102.00;5068647;28;20115;-40
2022/06/21 03:46:20;;;;;;;6.72;4.32;;;;;;;12.20;74.08;93104.66;5069015;28;20024;-40
2022/06/21 03:48:54;;;;;;;10.18;4.20;;;;;;;12.24;74.19;93104.25;5051454;28;20085;-43
2022/06/21 03:51:26;;;;;;;7.10;4.22;;;;;;;12.26;74.80;93107.94;5056218;28;20036;-42
2022/06/21 03:54:30;;;;;;;6.53;4.30;;;;;;;12.31;74.86;93106.22;5031735;28;20028;-42
2022/06/21 03:57:00;;;;;;;4.53;4.13;;;;;;;12.28;74.68;93102.56;5019518;28;20040;-42
2022/06/21 03:59:35;;;;;;;4.30;3.90;;;;;;;12.48;74.19;93117.31;5057639;28;20036;-42
2022/06/21 04:02:29;;;;;;;6.07;4.53;;;;;;;12.54;74.03;93106.75;5069366;28;20489;-43
2022/06/21 04:05:03;;;;;;;5.20;3.92;;;;;;;12.40;74.44;93122.94;5058178;28;20040;-42
2022/06/21 04:07:31;;;;;;;4.68;4.18;;;;;;;12.52;74.98;93123.91;5069565;28;20449;-42
2022/06/21 04:10:18;;;;;;;7.03;4.35;;;;;;;12.64;74.74;93115.88;5069495;28;20043;-41
2022/06/21 04:12:48;;;;;;;6.53;4.57;;;;;;;12.78;74.56;93114.97;5066280;28;20714;-42
2022/06/21 04:15:37;;;;;;;7.82;5.20;;;;;;;12.75;74.94;93115.38;5046043;28;20044;-43
2022/06/21 04:18:08;;;;;;;8.65;6.18;;;;;;;12.89;75.22;93120.00;5069382;28;20021;-42
2022/06/21 04:20:51;;;;;;;10.93;9.20;;;;;;;12.97;75.31;93114.38;5068051;28;20524;-41
2022/06/21 04:23:20;;;;;;;15.57;13.40;;;;;;;13.01;75.09;93108.44;5057891;28;20043;-41
2022/06/21 04:25:48;;;;;;;;;;;;;;;13.06;75.33;93110.25;5049688;28;20461;-42
2022/06/21 04:28:19;;;;;;;13.48;9.95;;;;;;;13.08;75.00;93100.03;5047594;28;19919;-42
2022/06/21 04:30:54;;;;;;;10.20;9.13;;;;;;;13.14;74.40;93100.53;5049284;28;20032;-42
2022/06/21 04:33:40;;;;;;;10.00;8.82;;;;;;;13.29;74.96;93107.91;5049332;28;20057;-42
2022/06/21 04:36:10;;;;;;;12.45;8.32;;;;;;;13.34;75.51;93109.69;5047505;28;20033;-43
2022/06/21 04:38:47;;;;;;;7.60;6.80;;;;;;;13.31;75.67;93085.88;5048908;28;20025;-42
2022/06/21 04:41:25;;;;;;;9.10;6.68;;;;;;;13.49;76.08;93110.19;5031173;28;20545;-41
2022/06/21 04:44:03;;;;;;;6.70;6.10;;;;;;;13.50;75.88;93108.91;5068183;28;20028;-42
2022/06/21 04:46:57;;;;;;;9.30;6.72;;;;;;;13.73;76.00;93113.41;5067523;28;20040;-41
2022/06/21 04:49:28;;;;;;;10.25;7.30;;;;;;;13.80;75.87;93112.53;5068647;28;20029;-42
2022/06/21 04:51:59;;;;;;;9.60;7.18;;;;;;;13.84;76.52;93108.03;5050825;28;20024;-39
2022/06/21 04:54:30;;;;;;;13.80;9.27;;;;;;;13.89;76.95;93100.75;5048940;28;20465;-38
2022/06/21 04:57:01;;;;;;;14.82;8.45;;;;;;;14.02;77.31;93097.56;5049011;28;20124;-38
2022/06/21 04:59:53;;;;;;;5.95;5.10;;;;;;;14.16;77.48;93101.44;5068355;28;20517;-39
2022/06/21 05:02:18;;;;;;;6.88;5.18;;;;;;;14.26;77.69;93091.06;5054023;28;20141;-39
2022/06/21 05:04:46;;;;;;;14.63;6.75;;;;;;;14.28;78.04;93094.00;5068568;28;20466;-40
2022/06/21 05:07:17;;;;;;;10.38;6.47;;;;;;;14.44;77.49;93089.69;5050703;28;20093;-38
2022/06/21 05:09:43;;;;;;;10.35;6.72;;;;;;;14.60;77.60;93090.13;5068767;28;20394;-39
2022/06/21 05:12:22;;;;;;;13.10;6.60;;;;;;;14.77;77.44;93093.50;5068569;28;20031;-39
2022/06/21 05:14:53;;;;;;;9.25;6.03;;;;;;;14.98;77.17;93101.25;5030295;28;20028;-41
2022/06/21 05:17:19;;;;;;;7.75;5.70;;;;;;;15.14;76.29;93102.41;5030530;28;20044;-38
2022/06/21 05:19:49;;;;;;;8.65;5.90;;;;;;;15.25;74.94;93101.81;5030399;28;20521;-38
2022/06/21 05:22:30;;;;;;;11.75;7.00;;;;;;;15.39;74.08;93104.88;5031725;28;20085;-38
2022/06/21 05:24:57;;;;;;;8.23;6.22;;;;;;;15.44;74.01;93110.13;5068645;28;20464;-38
2022/06/21 05:27:46;;;;;;;8.65;6.32;;;;;;;15.53;74.68;93111.44;5050340;28;20033;-38
2022/06/21 05:30:23;;;;;;;8.98;6.15;;;;;;;15.54;75.22;93107.34;5068448;28;20029;-39
2022/06/21 05:32:52;;;;;;;8.60;7.70;;;;;;;15.63;75.43;93109.38;5050729;28;20032;-38
2022/06/21 05:35:21;;;;;;;8.88;7.97;;;;;;;15.75;76.35;93113.72;5068267;28;20031;-38
2022/06/21 05:38:00;;;;;;;10.57;6.32;;;;;;;15.76;76.85;93109.63;5068163;28;20028;-38
2022/06/21 05:40:54;;;;;;;6.90;6.10;;;;;;;15.86;76.10;93115.16;5050501;28;20029;-39
2022/06/21 05:43:37;;;;;;;7.22;6.10;;;;;;;15.94;76.30;93110.13;5050247;28;20547;-39
2022/06/21 05:46:09;;;;;;;6.28;5.78;;;;;;;16.11;76.11;93125.91;5053478;28;20025;-38
2022/06/21 05:48:36;;;;;;;9.20;5.65;;;;;;;16.29;74.70;93121.56;5039118;28;20029;-39
2022/06/21 05:51:04;;;;;;;9.10;5.45;;;;;;;16.39;73.64;93117.44;5042890;28;20020;-39
2022/06/21 05:53:32;;;;;;;7.13;5.68;;;;;;;16.53;72.67;93117.66;5072025;28;20020;-39
2022/06/21 05:56:00;;;;;;;6.57;5.50;;;;;;;16.56;73.15;93116.47;5071670;28;20510;-39
2022/06/21 05:58:28;;;;;;;5.63;5.13;;;;;;;16.57;73.82;93109.56;5053880;28;20036;-40
2022/06/21 06:00:58;;;;;;;11.27;6.50;;;;;;;16.65;74.10;93105.25;5071537;28;20606;-40
2022/06/21 06:03:30;;;;;;;7.20;5.90;;;;;;;16.84;74.03;93112.03;5071866;28;20028;-39
2022/06/21 06:05:56;;;;;;;6.60;5.32;;;;;;;16.97;72.17;93117.06;5053871;28;20501;-39
2022/06/21 06:08:33;;;;;;;7.88;5.38;;;;;;;17.04;72.56;93111.28;5071353;28;20035;-39
2022/06/21 06:11:01;;;;;;;6.53;4.57;;;;;;;17.05;70.10;93118.31;5054208;28;20048;-40
2022/06/21 06:13:33;;;;;;;7.70;5.23;;;;;;;17.11;69.60;93101.22;5063036;28;20028;-39
2022/06/21 06:16:25;;;;;;;5.85;5.13;;;;;;;17.40;70.02;93110.09;5033747;28;20595;-38
2022/06/21 06:18:55;;;;;;;10.13;5.00;;;;;;;17.52;70.14;93110.16;5044487;28;20037;-39
2022/06/21 06:21:26;;;;;;;5.45;4.80;;;;;;;17.61;69.32;93109.31;5051642;28;20037;-40
2022/06/21 06:24:15;;;;;;;5.38;4.88;;;;;;;17.77;69.06;93104.75;5064523;28;20107;-38
2022/06/21 06:26:41;;;;;;;4.78;4.30;;;;;;;17.67;68.49;93087.38;5053671;28;20029;-40
2022/06/21 06:29:12;;;;;;;4.78;4.38;;;;;;;17.87;68.99;93117.25;5071685;28;20467;-39
2022/06/21 06:31:53;;;;;;;5.85;4.28;;;;;;;17.93;67.58;93109.25;5071535;28;20409;-41
2022/06/21 06:34:28;;;;;;;5.50;3.90;;;;;;;18.16;65.95;93114.16;5071515;28;20054;-39
2022/06/21 06:36:56;;;;;;;7.40;4.10;;;;;;;18.25;65.42;93123.75;5053595;28;20024;-38
2022/06/21 06:39:25;;;;;;;5.47;3.97;;;;;;;18.44;65.01;93115.09;5053823;28;20396;-39
2022/06/21 06:41:55;;;;;;;5.82;4.32;;;;;;;18.49;66.69;93119.63;5071290;28;20111;-39
2022/06/21 06:44:21;;;;;;;5.15;4.53;;;;;;;18.53;64.97;93097.50;5071268;28;20038;-39
2022/06/21 06:46:50;;;;;;;6.13;4.60;;;;;;;18.73;65.06;93112.69;5070553;28;20027;-38
2022/06/21 06:49:34;;;;;;;4.65;4.18;;;;;;;18.81;65.47;93107.56;5070469;28;20033;-40
2022/06/21 06:52:42;;;;;;;6.60;4.47;;;;;;;18.90;64.07;93110.22;5060817;28;20060;-39
2022/06/21 06:55:11;;;;;;;4.25;3.88;;;;;;;19.00;64.81;93115.66;5033663;28;20047;-39
2022/06/21 06:57:53;;;;;;;7.40;4.13;;;;;;;19.13;64.72;93101.00;5053481;28;20063;-39
2022/06/21 07:00:26;;;;;;;4.15;3.75;;;;;;;19.19;63.96;93101.34;5051781;28;20063;-39
2022/06/21 07:03:00;;;;;;;5.53;4.57;;;;;;;19.18;65.23;93105.50;5067303;28;20070;-39
2022/06/21 07:05:36;;;;;;;4.63;3.83;;;;;;;19.30;64.41;93108.25;5061215;28;20036;-37
2022/06/21 07:08:24;;;;;;;4.40;4.00;;;;;;;19.36;64.00;93103.03;5032879;28;20417;-44
2022/06/21 07:10:52;;;;;;;4.23;3.83;;;;;;;19.58;64.53;93104.25;5049291;28;20048;-42
2022/06/21 07:13:18;;;;;;;5.93;4.00;;;;;;;20.00;61.62;93106.59;5045362;28;20106;-41
2022/06/21 07:15:46;;;;;;;4.15;3.75;;;;;;;20.33;61.64;93106.25;5050591;28;20545;-41
2022/06/21 07:18:26;;;;;;;5.15;4.00;;;;;;;20.69;60.09;93108.13;5050417;28;20405;-39
2022/06/21 07:20:52;;;;;;;15.40;4.15;;;;;;;21.08;59.21;93096.78;5033056;28;20024;-42
2022/06/21 07:23:22;;;;;;;8.27;3.78;;;;;;;22.00;56.14;93108.25;5042471;28;20031;-41
2022/06/21 07:25:59;;;;;;;5.03;3.42;;;;;;;23.09;53.44;93100.50;5068610;28;20017;-42
2022/06/21 07:28:41;;;;;;;6.90;3.58;;;;;;;24.42;49.69;93116.41;5070233;28;20029;-41
2022/06/21 07:31:15;;;;;;;127.60;10.05;;;;;;;25.64;47.16;93114.44;5064177;28;20083;-42
2022/06/21 07:33:47;;;;;;;5.70;3.28;;;;;;;26.81;44.90;93115.97;5032478;28;20029;-40
2022/06/21 07:36:19;;;;;;;5.47;3.05;;;;;;;27.34;42.02;93117.41;5034323;28;20028;-41
2022/06/21 07:38:47;;;;;;;3.35;3.05;;;;;;;28.15;41.38;93112.44;5048088;28;20020;-40
2022/06/21 07:41:33;;;;;;;5.20;3.55;;;;;;;28.76;39.94;93123.03;5066397;28;20025;-42
2022/06/21 07:44:04;;;;;;;3.75;3.17;;;;;;;28.13;39.60;93115.19;5054300;28;20037;-43
2022/06/21 07:46:34;;;;;;;3.83;3.47;;;;;;;28.37;39.91;93129.97;5067485;28;20038;-42
2022/06/21 07:49:10;;;;;;;5.93;3.50;;;;;;;28.85;39.35;93126.75;5051905;28;20056;-43
2022/06/21 07:51:40;;;;;;;5.65;3.45;;;;;;;29.24;37.90;93126.16;5061195;28;20028;-42
2022/06/21 07:54:27;;;;;;;5.43;3.95;;;;;;;29.67;36.90;93125.56;5060021;28;21385;-42
2022/06/21 07:57:14;;;;;;;11.35;4.40;;;;;;;30.46;37.68;93133.31;5048712;28;20036;-41
2022/06/21 07:59:43;;;;;;;5.67;3.57;;;;;;;30.69;35.39;93126.53;5063054;28;20029;-42
2022/06/21 08:08:25;;;;;;;7.47;3.30;;;;;;;31.43;34.44;93134.63;5059333;28;20521;-41
2022/06/21 08:10:56;;;;;;;8.30;3.45;;;;;;;31.58;34.72;93144.09;5049962;28;20032;-42
2022/06/21 08:13:21;;;;;;;4.30;3.20;;;;;;;31.50;34.04;93144.72;5045912;28;20082;-45
2022/06/21 08:15:52;;;;;;;5.65;2.90;;;;;;;31.34;34.69;93147.34;5056381;28;20049;-43
2022/06/21 08:18:46;;;;;;;3.90;2.95;;;;;;;31.73;33.19;93143.53;5042869;28;20494;-43
2022/06/21 08:21:18;;;;;;;4.15;2.95;;;;;;;31.89;32.49;93140.13;5017263;28;20440;-46
2022/06/21 08:35:38;;;;;;;4.30;2.50;;;;;;;34.26;28.46;93132.16;5064707;28;20590;-45
2022/06/21 08:38:30;;;;;;;5.30;3.05;;;;;;;34.27;29.27;93133.56;5064838;28;20041;-44
2022/06/21 08:40:59;;;;;;;6.68;3.00;;;;;;;34.24;28.79;93138.56;5071298;28;20024;-45
2022/06/21 08:43:27;;;;;;;;;;;;;;;34.37;27.14;93133.59;5081531;28;20028;-45
2022/06/21 08:46:29;;;;;;;3.47;2.83;;;;;;;34.64;29.34;93123.53;5053927;28;19920;-47
2022/06/21 08:49:03;;;;;;;3.22;2.53;;;;;;;34.38;28.88;93134.28;5053820;28;20578;-47
2022/06/21 08:51:38;;;;;;;4.75;3.10;;;;;;;34.56;30.11;93129.31;5052678;28;20017;-44
2022/06/21 08:54:06;;;;;;;3.95;2.67;;;;;;;34.92;27.89;93132.09;5052196;28;20051;-43
2022/06/21 08:56:43;;;;;;;;;;;;;;;35.39;27.44;93134.88;5054447;28;20133;-46
2022/06/21 08:59:53;;;;;;;4.67;2.87;;;;;;;35.86;26.91;93121.00;5053238;28;19916;-46
2022/06/21 09:02:37;;;;;;;7.80;3.42;;;;;;;36.19;26.76;93125.13;5030139;28;20032;-44
2022/06/21 09:05:20;;;;;;;4.57;2.75;;;;;;;35.57;27.72;93126.19;5054762;28;20026;-44
2022/06/21 09:08:15;;;;;;;7.75;5.43;;;;;;;35.58;26.86;93121.88;5051952;28;20431;-49
2022/06/21 09:11:16;;;;;;;4.65;4.13;;;;;;;35.67;28.58;93114.66;5047763;28;20033;-44
2022/06/21 09:13:55;;;;;;;4.00;2.97;;;;;;;36.17;27.62;93105.03;5004202;28;20420;-43
2022/06/21 09:16:36;;;;;;;7.45;2.75;;;;;;;35.76;28.34;93108.13;5053990;28;20017;-45
2022/06/21 09:19:26;;;;;;;5.90;2.75;;;;;;;36.20;27.65;93103.56;5054157;28;20027;-48
2022/06/21 09:22:13;;;;;;;14.90;3.38;;;;;;;35.71;27.19;93100.97;5052732;28;20028;-44
2022/06/21 09:24:58;;;;;;;5.32;2.75;;;;;;;34.99;29.35;93104.88;5051862;28;20021;-45
2022/06/21 09:27:32;;;;;;;4.35;3.00;;;;;;;35.34;28.92;93096.13;5051895;28;20512;-45
2022/06/21 09:30:06;;;;;;;4.82;2.70;;;;;;;35.69;29.63;93098.09;5046410;28;20032;-46
2022/06/21 09:32:41;;;;;;;8.73;4.00;;;;;;;34.99;30.27;93098.38;5054922;28;20033;-44
2022/06/21 09:35:31;;;;;;;6.90;2.97;;;;;;;35.26;29.37;93091.13;5049362;28;20074;-45
2022/06/21 09:38:06;;;;;;;4.55;3.25;;;;;;;35.45;28.80;93088.91;5052038;28;20029;-46
2022/06/21 09:41:33;;;;;;;3.88;3.33;;;;;;;35.71;29.89;93089.47;5050967;28;20029;-45
2022/06/21 09:44:12;;;;;;;5.78;3.25;;;;;;;35.85;29.87;93087.97;5018472;28;20424;-45
2022/06/21 09:46:53;;;;;;;7.15;4.10;;;;;;;35.96;28.70;93090.06;5030095;28;20773;-46
2022/06/21 09:49:59;;;;;;;8.23;3.10;;;;;;;35.92;27.47;93089.34;5042504;28;20032;-45
2022/06/21 09:52:43;;;;;;;4.95;3.50;;;;;;;35.95;29.02;93085.78;5043127;28;20049;-49
2022/06/21 09:55:24;;;;;;;5.72;3.75;;;;;;;34.94;29.71;93083.31;5039890;28;20029;-45
2022/06/21 09:58:10;;;;;;;6.75;3.30;;;;;;;33.31;31.99;93079.66;5040081;28;20087;-44
2022/06/21 10:01:11;;;;;;;5.82;4.28;;;;;;;31.70;34.74;93081.41;5034931;28;20579;-46
2022/06/21 10:03:49;;;;;;;6.32;4.55;;;;;;;30.48;36.93;93075.66;5023167;28;20033;-43
2022/06/21 10:06:36;;;;;;;11.77;4.75;;;;;;;30.23;38.29;93077.41;5029879;28;20100;-45
2022/06/21 10:09:14;;;;;;;10.80;4.30;;;;;;;30.95;36.90;93069.16;5028910;28;20112;-42
2022/06/21 10:12:06;;;;;;;9.77;4.60;;;;;;;31.01;36.28;93074.97;5037334;28;20029;-47
2022/06/21 10:14:47;;;;;;;8.43;4.80;;;;;;;30.62;38.14;93081.56;5008347;28;20496;-43
2022/06/21 10:17:37;;;;;;;7.15;4.53;;;;;;;30.15;38.59;93079.41;5037813;28;20021;-45
2022/06/21 10:20:25;;;;;;;8.10;6.15;;;;;;;29.66;39.33;93075.75;5039125;28;20025;-44
2022/06/21 10:23:08;;;;;;;11.25;5.30;;;;;;;29.70;40.28;93070.13;5037777;28;20033;-45
2022/06/21 10:25:49;;;;;;;9.95;5.70;;;;;;;30.48;40.22;93076.38;5037276;28;20443;-45
2022/06/21 10:28:15;;;;;;;8.18;5.20;;;;;;;31.54;38.78;93075.53;5040028;28;20021;-44
2022/06/21 10:30:53;;;;;;;7.03;4.82;;;;;;;31.63;37.71;93065.63;5040941;28;20555;-48
2022/06/21 10:33:23;;;;;;;9.40;5.83;;;;;;;31.01;37.27;93063.56;5043103;28;20115;-46
2022/06/21 10:36:07;;;;;;;8.45;5.90;;;;;;;30.39;39.84;93077.66;5043928;28;20469;-44
2022/06/21 10:39:11;;;;;;;7.68;6.13;;;;;;;29.80;40.62;93076.00;5060124;28;20074;-42
2022/06/21 10:42:46;;;;;;;15.90;6.20;;;;;;;29.76;41.14;93073.09;5018623;28;20089;-43
2022/06/21 10:45:12;;;;;;;9.43;5.70;;;;;;;29.37;41.74;93073.81;5058125;28;20083;-45
2022/06/21 10:48:09;;;;;;;9.32;6.00;;;;;;;29.60;41.24;93069.25;4998970;28;20030;-44
2022/06/21 10:50:52;;;;;;;6.57;5.80;;;;;;;29.98;40.68;93078.44;4995505;28;20453;-43
2022/06/21 10:53:34;;;;;;;9.48;5.68;;;;;;;29.41;41.85;93073.88;5048805;28;20043;-44
2022/06/21 11:01:16;;;;;;;7.70;5.60;;;;;;;30.27;43.13;93076.75;5059554;28;20522;-46
2022/06/21 11:02:51;;;;;;;9.50;5.30;;;;;;;31.56;40.92;93067.72;5048222;28;20036;-44
2022/06/21 11:05:35;;;;;;;10.63;5.45;;;;;;;31.89;39.00;93077.28;5029590;28;20131;-47
2022/06/21 11:08:25;;;;;;;7.53;5.38;;;;;;;31.41;39.41;93086.84;5070499;28;20035;-44
2022/06/21 11:11:12;;;;;;;12.23;5.18;;;;;;;31.35;39.50;93081.03;5064820;28;20036;-46
2022/06/21 11:13:42;;;;;;;6.60;5.85;;;;;;;31.31;39.11;93088.84;5067206;28;20432;-44
2022/06/21 11:16:14;;;;;;;6.65;5.90;;;;;;;30.63;40.16;93089.41;5051719;28;20029;-45
2022/06/21 11:19:00;;;;;;;8.43;6.38;;;;;;;30.26;41.01;93090.25;5070519;28;20829;-44
2022/06/21 11:22:03;;;;;;;7.15;5.57;;;;;;;29.98;42.02;93086.97;5070072;28;20543;-44
2022/06/21 11:24:46;;;;;;;8.75;6.55;;;;;;;30.08;42.88;93086.41;5068751;28;20434;-47
2022/06/21 11:27:33;;;;;;;5.80;5.05;;;;;;;30.94;40.96;93084.84;5068572;28;20089;-46
2022/06/21 11:30:27;;;;;;;10.73;5.82;;;;;;;31.44;42.30;93076.16;5049352;28;20812;-45
2022/06/21 11:33:02;;;;;;;42.50;7.47;;;;;;;31.98;39.82;93073.13;5061482;28;20052;-45
2022/06/21 11:35:35;;;;;;;6.40;4.65;;;;;;;32.29;37.58;93080.50;5087344;28;20123;-47
2022/06/21 11:38:16;;;;;;;5.50;5.00;;;;;;;32.18;35.89;93065.41;5070374;28;20038;-45
2022/06/21 11:41:05;;;;;;;8.57;5.40;;;;;;;32.51;36.39;93077.81;5070503;28;20028;-46
2022/06/21 11:43:31;;;;;;;8.32;5.35;;;;;;;32.61;36.43;93075.03;5071211;28;20722;-45
2022/06/21 11:46:24;;;;;;;7.47;5.13;;;;;;;32.66;36.40;93073.59;5090003;28;20031;-45
2022/06/21 11:49:28;;;;;;;5.93;5.30;;;;;;;32.54;37.07;93072.81;5072013;28;20019;-47
2022/06/21 11:52:21;;;;;;;6.70;5.47;;;;;;;32.00;37.07;93078.84;5055381;28;20028;-48
2022/06/21 11:55:18;;;;;;;7.90;5.63;;;;;;;31.58;36.68;93081.31;5035263;28;20033;-47
2022/06/21 11:57:55;;;;;;;8.55;6.45;;;;;;;31.17;38.30;93074.41;5051626;28;20032;-47
2022/06/21 12:00:32;;;;;;;6.57;5.80;;;;;;;31.00;39.41;93067.06;5054471;28;20045;-46
2022/06/21 12:02:59;;;;;;;11.07;5.40;;;;;;;30.96;38.39;93062.06;5048123;28;20103;-45
2022/06/21 12:05:46;;;;;;;9.68;6.60;;;;;;;31.11;39.99;93060.81;5056664;28;20484;-48
2022/06/21 12:08:18;;;;;;;8.25;5.07;;;;;;;31.11;38.58;93068.63;5032339;28;20025;-45
2022/06/21 12:10:57;;;;;;;8.23;5.82;;;;;;;31.12;39.10;93061.53;5058827;28;20074;-45
2022/06/21 12:13:38;;;;;;;6.40;5.45;;;;;;;31.12;37.46;93050.81;5049454;28;20111;-49
2022/06/21 12:16:16;;;;;;;7.38;5.50;;;;;;;30.92;38.47;93064.13;5049499;28;20511;-47
2022/06/21 12:18:46;;;;;;;7.53;6.03;;;;;;;30.61;40.09;93063.72;5049293;28;20033;-46
2022/06/21 12:21:14;;;;;;;7.80;5.85;;;;;;;30.62;42.21;93064.44;5059203;28;20036;-45
2022/06/21 12:23:58;;;;;;;7.10;5.55;;;;;;;30.71;40.73;93063.84;5040946;28;20051;-45
2022/06/21 12:26:26;;;;;;;7.65;5.70;;;;;;;30.70;40.50;93067.41;5042094;28;20045;-46
2022/06/21 12:28:53;;;;;;;6.65;5.90;;;;;;;30.53;40.71;93068.59;5056177;28;20040;-46
2022/06/21 12:31:22;;;;;;;7.75;5.95;;;;;;;30.31;42.56;93071.13;5059909;28;20088;-46
2022/06/21 12:33:52;;;;;;;8.52;4.93;;;;;;;29.90;39.06;93066.91;5043404;28;20052;-47
2022/06/21 12:36:35;;;;;;;8.18;5.03;;;;;;;29.78;40.23;93070.28;5039812;28;20075;-48
2022/06/21 12:39:05;;;;;;;9.77;6.38;;;;;;;29.72;38.93;93078.69;5056107;28;20501;-45
2022/06/21 12:41:40;;;;;;;6.45;5.13;;;;;;;29.53;38.28;93070.53;5037044;28;20414;-46